Thunder radar more information blitzortung!


Rain radar more information rain snow radar


altri nostri siti meteo:

PomeziameteoStazione ufficiale di Pomezia

MeteopomeziaSito sulle condizioni meteo



Nessuna attenzione particolare richiesta.    Non ci sono allerte meteo

Report METAR

   
LIMP - Parma
Dati ricevuti: 15-05-2021 20:50
Molto nuvoloso  
Molto nuvoloso  
   Vento: W 11.1 km/h
Vento: W 11.1 km/h
Temperatura: 17°C
P.to Rugiada: 9°C
Umidita: 59%
Barometro: 1008 hPa
Nuvole: Molto nuvoloso
Visibilita: oltre 10 km
dettagli cloud: Molto nuvoloso 3000 ft
LIMP 151850Z 24006KT 9999 BKN030 17/09 Q1008
LIPE - Bologna
Dati ricevuti: 15-05-2021 21:50
Poche nuvole  
Poche nuvole  
   Vento: Sud 11.1 km/h
Vento: Sud 11.1 km/h
Temperatura: 17°C
P.to Rugiada: 7°C
Umidita: 52%
Barometro: 1008 hPa
Nuvole: Poche nuvole
Visibilita: oltre 10 km
dettagli cloud: Poche nuvole 7000 ft
LIPE 151950Z 18006KT 9999 FEW070 17/07 Q1008
LIPO - Brescia/Montichi
Dati ricevuti: 15-05-2021 21:50
Pioggia leggera, Coperto  
Pioggia leggera, Coperto  
   Vento: W 5.6 km/h
Vento: W 5.6 km/h
Temperatura: 16°C
P.to Rugiada: 12°C
Umidita: 77%
Barometro: 1008 hPa
Nuvole: Coperto
Visibilita: oltre 10 km
dettagli cloud: Coperto 5000 ft
LIPO 151950Z AUTO 25003KT 9999 -RA OVC050/// 16/12 Q1008
LIPF - Ferrara
Dati ricevuti: 15-05-2021 19:55
DATI Obsoleti
Pioggia leggera, Parzialmente nuvoloso  
Pioggia leggera, Parzialmente nuvoloso  
   Vento: S 3.7 km/h
Vento: S 3.7 km/h
Temperatura: 18°C
P.to Rugiada: 11°C
Umidita: 64%
Barometro: 1008 hPa
Nuvole: Parzialmente nuvoloso
Visibilita: oltre 10 km
dettagli cloud: Parzialmente nuvoloso 2500 ft,
Parzialmente nuvoloso 7000 ft
LIPF 151755Z 15002KT 9999 -RA SCT025TCU SCT070 18/11 Q1008
LIPL - Ghedi
Dati ricevuti: 15-05-2021 20:55
Parzialmente nuvoloso  
Parzialmente nuvoloso  
   Vento: Variabile calma
Vento: Variabile calma
Temperatura: 15°C
P.to Rugiada: 10°C
Umidita: 72%
Barometro: 1007 hPa
Nuvole: Parzialmente nuvoloso
Visibilita: oltre 10 km
dettagli cloud: Parzialmente nuvoloso 4500 ft
LIPL 151855Z /////KT 9999 SCT045 15/10 Q1007 RMK BKN SCT100 VIS MIN 9999 WIND THR31 04002KT WIND THR13 /////KT BLU
LIVC - Monte Cimone
Dati ricevuti: 15-05-2021 21:36
  
  
   Vento: SW 50 km/h<br />Gust to 50 km/h
Vento: SW 50 km/h
Gust to 50 km/h
Temperatura: 2°C
Temperatura Vento: -6°C
P.to Rugiada: 2°C
Umidita: 100%
Barometro: 1011 hPa
LIVC 151936Z AUTO 22027G40KT 190V260 //// 02/02 Q1011
LIMS - Piacenza
Dati ricevuti: 15-05-2021 19:55
DATI Obsoleti
Molto nuvoloso  
Molto nuvoloso  
   Vento: W 24.1 km/h
Vento: W 24.1 km/h
Temperatura: 18°C
P.to Rugiada: 12°C
Umidita: 68%
Barometro: 1007 hPa
Nuvole: Molto nuvoloso
Visibilita: oltre 10 km
dettagli cloud: Molto nuvoloso 6000 ft
LIMS 151755Z 25013KT 210V290 9999 BKN060 18/12 Q1007
LIMT - Passo della Cisa
Dati ricevuti: 23-09-2019 13:55
DATI Obsoleti
Nebbia  
Nebbia  
   Vento: calma
Vento: calma
Temperatura: 10°C
P.to Rugiada: 10°C
Umidita: 100%
Barometro: 1014 hPa
Visibilita: 0 km
dettagli cloud: Coperto
LIMT 231155Z 00000KT 0000 FG VV/// 10/10 Q1014 RMK MON INVIS VAL INVIS VIS MIN 0000
LIPU - Padova
Dati ricevuti: 15-05-2021 08:00
DATI Obsoleti
Sereno  
Sereno  
   Vento: Variabile 3.7 km/h
Vento: Variabile 3.7 km/h
Temperatura: 13°C
P.to Rugiada: 11°C
Umidita: 88%
Barometro: 1010 hPa
Visibilita: oltre 10 km
dettagli cloud: Sereno
LIPU 150600Z VRB02KT CAVOK 13/11 Q1010

Script sviluppato da  Saratoga-weather.org Adattato per il modello da  Weerstation Leuven

Strumentazione usata:

Stazione meteo
Davis VP2

Programma gestore dati meteo
WVIEW

Server per i dati meteo
Pc-WDS5

Davis VP2

WVIEW

Pc-WDS5